sensor_id;sensor_type;location;lat;lon;timestamp;temperature;humidity
21267;DHT22;10791;53.108;18.326;2024-03-25T00:00:43;4.80;99.90
21267;DHT22;10791;53.108;18.326;2024-03-25T00:06:05;4.80;99.90
21267;DHT22;10791;53.108;18.326;2024-03-25T00:11:08;4.80;99.90
21267;DHT22;10791;53.108;18.326;2024-03-25T00:16:10;4.60;99.90
21267;DHT22;10791;53.108;18.326;2024-03-25T00:21:13;4.50;99.90
21267;DHT22;10791;53.108;18.326;2024-03-25T00:26:16;4.50;99.90
21267;DHT22;10791;53.108;18.326;2024-03-25T00:31:18;4.40;99.90
21267;DHT22;10791;53.108;18.326;2024-03-25T00:36:20;4.40;99.90
21267;DHT22;10791;53.108;18.326;2024-03-25T00:41:22;4.40;99.90
21267;DHT22;10791;53.108;18.326;2024-03-25T00:46:24;4.50;99.90
21267;DHT22;10791;53.108;18.326;2024-03-25T00:51:26;4.40;99.90
21267;DHT22;10791;53.108;18.326;2024-03-25T00:56:28;4.30;99.90
21267;DHT22;10791;53.108;18.326;2024-03-25T01:01:30;4.20;99.90
21267;DHT22;10791;53.108;18.326;2024-03-25T01:06:33;4.10;99.90
21267;DHT22;10791;53.108;18.326;2024-03-25T01:11:35;4.00;99.90
21267;DHT22;10791;53.108;18.326;2024-03-25T01:16:37;3.90;99.90
21267;DHT22;10791;53.108;18.326;2024-03-25T01:21:39;3.80;99.90
21267;DHT22;10791;53.108;18.326;2024-03-25T01:26:41;3.70;99.90
21267;DHT22;10791;53.108;18.326;2024-03-25T01:31:43;3.60;99.90
21267;DHT22;10791;53.108;18.326;2024-03-25T01:36:45;3.60;99.90
21267;DHT22;10791;53.108;18.326;2024-03-25T01:41:47;3.50;99.90
21267;DHT22;10791;53.108;18.326;2024-03-25T01:46:49;3.40;99.90
21267;DHT22;10791;53.108;18.326;2024-03-25T01:51:51;3.30;99.90
21267;DHT22;10791;53.108;18.326;2024-03-25T01:56:53;3.30;99.90
21267;DHT22;10791;53.108;18.326;2024-03-25T02:01:57;3.30;99.90
21267;DHT22;10791;53.108;18.326;2024-03-25T02:07:00;3.20;99.90
21267;DHT22;10791;53.108;18.326;2024-03-25T02:12:02;3.30;99.90
21267;DHT22;10791;53.108;18.326;2024-03-25T02:17:06;3.30;99.90
21267;DHT22;10791;53.108;18.326;2024-03-25T02:22:08;3.30;99.90
21267;DHT22;10791;53.108;18.326;2024-03-25T02:27:10;3.40;99.90
21267;DHT22;10791;53.108;18.326;2024-03-25T02:32:23;3.30;99.90
21267;DHT22;10791;53.108;18.326;2024-03-25T02:37:34;3.30;99.90
21267;DHT22;10791;53.108;18.326;2024-03-25T02:42:37;3.20;99.90
21267;DHT22;10791;53.108;18.326;2024-03-25T02:47:42;3.20;99.90
21267;DHT22;10791;53.108;18.326;2024-03-25T02:52:44;3.10;99.90
21267;DHT22;10791;53.108;18.326;2024-03-25T02:57:46;3.10;99.90
21267;DHT22;10791;53.108;18.326;2024-03-25T03:02:48;3.10;99.90
21267;DHT22;10791;53.108;18.326;2024-03-25T03:07:51;3.20;99.90
21267;DHT22;10791;53.108;18.326;2024-03-25T03:12:54;3.30;99.90
21267;DHT22;10791;53.108;18.326;2024-03-25T03:17:56;3.40;99.90
21267;DHT22;10791;53.108;18.326;2024-03-25T03:22:58;3.40;99.90
21267;DHT22;10791;53.108;18.326;2024-03-25T03:28:00;3.50;99.90
21267;DHT22;10791;53.108;18.326;2024-03-25T03:33:02;3.60;99.90
21267;DHT22;10791;53.108;18.326;2024-03-25T03:38:04;3.70;99.90
21267;DHT22;10791;53.108;18.326;2024-03-25T03:43:07;3.80;99.90
21267;DHT22;10791;53.108;18.326;2024-03-25T03:48:08;3.90;99.90
21267;DHT22;10791;53.108;18.326;2024-03-25T03:53:11;3.90;99.90
21267;DHT22;10791;53.108;18.326;2024-03-25T03:58:13;3.90;99.90
21267;DHT22;10791;53.108;18.326;2024-03-25T04:03:15;3.90;99.90
21267;DHT22;10791;53.108;18.326;2024-03-25T04:08:17;3.90;99.90
21267;DHT22;10791;53.108;18.326;2024-03-25T04:13:19;3.90;99.90
21267;DHT22;10791;53.108;18.326;2024-03-25T04:18:22;4.00;99.90
21267;DHT22;10791;53.108;18.326;2024-03-25T04:23:24;4.00;99.90
21267;DHT22;10791;53.108;18.326;2024-03-25T04:28:26;4.00;99.90
21267;DHT22;10791;53.108;18.326;2024-03-25T04:33:28;4.00;99.90
21267;DHT22;10791;53.108;18.326;2024-03-25T04:38:30;4.00;99.90
21267;DHT22;10791;53.108;18.326;2024-03-25T04:43:32;4.00;99.90
21267;DHT22;10791;53.108;18.326;2024-03-25T04:48:34;4.00;99.90
21267;DHT22;10791;53.108;18.326;2024-03-25T04:53:36;4.10;99.90
21267;DHT22;10791;53.108;18.326;2024-03-25T04:58:39;4.10;99.90
21267;DHT22;10791;53.108;18.326;2024-03-25T05:03:41;4.10;99.90
21267;DHT22;10791;53.108;18.326;2024-03-25T05:08:43;4.10;99.90
21267;DHT22;10791;53.108;18.326;2024-03-25T05:13:45;4.20;99.90
21267;DHT22;10791;53.108;18.326;2024-03-25T05:18:47;4.30;99.90
21267;DHT22;10791;53.108;18.326;2024-03-25T05:23:49;4.40;99.90
21267;DHT22;10791;53.108;18.326;2024-03-25T05:28:58;4.60;99.90
21267;DHT22;10791;53.108;18.326;2024-03-25T05:34:00;4.80;99.90
21267;DHT22;10791;53.108;18.326;2024-03-25T05:39:04;4.90;99.90
21267;DHT22;10791;53.108;18.326;2024-03-25T05:44:06;4.90;99.90
21267;DHT22;10791;53.108;18.326;2024-03-25T05:49:09;5.00;99.90
21267;DHT22;10791;53.108;18.326;2024-03-25T05:54:11;5.00;99.90
21267;DHT22;10791;53.108;18.326;2024-03-25T05:59:13;5.10;99.90
21267;DHT22;10791;53.108;18.326;2024-03-25T06:04:15;5.10;99.90
21267;DHT22;10791;53.108;18.326;2024-03-25T06:09:17;5.10;99.90
21267;DHT22;10791;53.108;18.326;2024-03-25T06:14:20;5.20;99.90
21267;DHT22;10791;53.108;18.326;2024-03-25T06:19:23;5.30;99.90
21267;DHT22;10791;53.108;18.326;2024-03-25T06:24:25;5.40;99.90
21267;DHT22;10791;53.108;18.326;2024-03-25T06:29:27;5.60;99.90
21267;DHT22;10791;53.108;18.326;2024-03-25T06:34:30;5.70;99.90
21267;DHT22;10791;53.108;18.326;2024-03-25T06:39:32;5.80;99.90
21267;DHT22;10791;53.108;18.326;2024-03-25T06:44:35;5.80;99.90
21267;DHT22;10791;53.108;18.326;2024-03-25T06:49:40;6.00;99.90
21267;DHT22;10791;53.108;18.326;2024-03-25T06:54:42;6.10;99.90
21267;DHT22;10791;53.108;18.326;2024-03-25T06:59:47;6.30;99.90
21267;DHT22;10791;53.108;18.326;2024-03-25T07:04:49;6.40;99.90
21267;DHT22;10791;53.108;18.326;2024-03-25T07:09:51;6.50;99.90
21267;DHT22;10791;53.108;18.326;2024-03-25T07:14:54;6.60;99.90
21267;DHT22;10791;53.108;18.326;2024-03-25T07:19:56;6.80;99.90
21267;DHT22;10791;53.108;18.326;2024-03-25T07:24:59;6.90;99.90
21267;DHT22;10791;53.108;18.326;2024-03-25T07:30:01;7.10;99.90
21267;DHT22;10791;53.108;18.326;2024-03-25T07:35:05;7.20;99.90
21267;DHT22;10791;53.108;18.326;2024-03-25T07:40:09;7.30;99.90
21267;DHT22;10791;53.108;18.326;2024-03-25T07:45:14;7.40;99.90
21267;DHT22;10791;53.108;18.326;2024-03-25T07:50:17;7.50;99.90
21267;DHT22;10791;53.108;18.326;2024-03-25T07:55:19;7.40;99.90
21267;DHT22;10791;53.108;18.326;2024-03-25T08:00:21;7.40;99.90
21267;DHT22;10791;53.108;18.326;2024-03-25T08:05:23;7.30;99.90
21267;DHT22;10791;53.108;18.326;2024-03-25T08:10:26;7.20;99.90
21267;DHT22;10791;53.108;18.326;2024-03-25T08:15:28;7.10;99.90
21267;DHT22;10791;53.108;18.326;2024-03-25T08:20:30;7.10;99.90
21267;DHT22;10791;53.108;18.326;2024-03-25T08:25:33;7.20;99.90
21267;DHT22;10791;53.108;18.326;2024-03-25T08:30:35;7.30;99.90
21267;DHT22;10791;53.108;18.326;2024-03-25T08:35:38;7.40;99.90
21267;DHT22;10791;53.108;18.326;2024-03-25T08:40:40;7.50;99.90
21267;DHT22;10791;53.108;18.326;2024-03-25T08:45:43;7.70;99.90
21267;DHT22;10791;53.108;18.326;2024-03-25T08:50:45;7.80;99.90
21267;DHT22;10791;53.108;18.326;2024-03-25T08:55:48;7.70;99.90
21267;DHT22;10791;53.108;18.326;2024-03-25T09:00:50;7.50;99.90
21267;DHT22;10791;53.108;18.326;2024-03-25T09:05:52;7.40;99.90
21267;DHT22;10791;53.108;18.326;2024-03-25T09:10:59;7.50;99.90
21267;DHT22;10791;53.108;18.326;2024-03-25T09:16:05;7.60;99.90
21267;DHT22;10791;53.108;18.326;2024-03-25T09:21:07;7.60;99.90
21267;DHT22;10791;53.108;18.326;2024-03-25T09:26:09;7.60;99.90
21267;DHT22;10791;53.108;18.326;2024-03-25T09:31:13;7.90;99.90
21267;DHT22;10791;53.108;18.326;2024-03-25T09:36:15;8.30;99.90
21267;DHT22;10791;53.108;18.326;2024-03-25T09:41:17;8.60;99.90
21267;DHT22;10791;53.108;18.326;2024-03-25T09:46:23;8.80;99.90
21267;DHT22;10791;53.108;18.326;2024-03-25T09:51:26;9.00;99.90
21267;DHT22;10791;53.108;18.326;2024-03-25T09:56:28;9.00;99.90
21267;DHT22;10791;53.108;18.326;2024-03-25T10:01:30;8.90;99.90
21267;DHT22;10791;53.108;18.326;2024-03-25T10:06:33;9.10;99.90
21267;DHT22;10791;53.108;18.326;2024-03-25T10:11:35;9.30;99.90
21267;DHT22;10791;53.108;18.326;2024-03-25T10:16:37;9.70;99.90
21267;DHT22;10791;53.108;18.326;2024-03-25T10:21:39;10.00;99.90
21267;DHT22;10791;53.108;18.326;2024-03-25T10:26:42;10.20;99.90
21267;DHT22;10791;53.108;18.326;2024-03-25T10:31:45;10.60;99.90
21267;DHT22;10791;53.108;18.326;2024-03-25T10:36:47;10.80;99.90
21267;DHT22;10791;53.108;18.326;2024-03-25T10:41:49;10.70;99.90
21267;DHT22;10791;53.108;18.326;2024-03-25T10:47:02;10.70;99.90
21267;DHT22;10791;53.108;18.326;2024-03-25T10:52:09;10.80;99.90
21267;DHT22;10791;53.108;18.326;2024-03-25T10:57:13;10.90;99.90
21267;DHT22;10791;53.108;18.326;2024-03-25T11:02:17;11.00;99.90
21267;DHT22;10791;53.108;18.326;2024-03-25T11:07:31;11.00;99.90
21267;DHT22;10791;53.108;18.326;2024-03-25T11:12:40;11.00;99.90
21267;DHT22;10791;53.108;18.326;2024-03-25T11:17:49;11.00;99.90
21267;DHT22;10791;53.108;18.326;2024-03-25T11:22:52;11.10;99.90
21267;DHT22;10791;53.108;18.326;2024-03-25T11:27:54;11.40;99.90
21267;DHT22;10791;53.108;18.326;2024-03-25T11:33:00;11.80;99.90
21267;DHT22;10791;53.108;18.326;2024-03-25T11:38:02;12.10;99.90
21267;DHT22;10791;53.108;18.326;2024-03-25T11:43:05;12.30;99.90
21267;DHT22;10791;53.108;18.326;2024-03-25T11:48:07;12.60;99.90
21267;DHT22;10791;53.108;18.326;2024-03-25T11:53:09;12.70;99.90
21267;DHT22;10791;53.108;18.326;2024-03-25T11:58:12;13.00;99.90
21267;DHT22;10791;53.108;18.326;2024-03-25T12:03:14;13.20;99.90
21267;DHT22;10791;53.108;18.326;2024-03-25T12:08:16;13.70;99.90
21267;DHT22;10791;53.108;18.326;2024-03-25T12:13:19;13.80;98.50
21267;DHT22;10791;53.108;18.326;2024-03-25T12:18:22;13.60;98.50
21267;DHT22;10791;53.108;18.326;2024-03-25T12:23:34;13.60;97.30
21267;DHT22;10791;53.108;18.326;2024-03-25T12:28:36;12.80;97.10
21267;DHT22;10791;53.108;18.326;2024-03-25T12:33:46;11.80;99.90
21267;DHT22;10791;53.108;18.326;2024-03-25T12:38:57;10.70;99.90
21267;DHT22;10791;53.108;18.326;2024-03-25T12:44:01;9.80;99.90
21267;DHT22;10791;53.108;18.326;2024-03-25T12:49:04;9.40;99.90
21267;DHT22;10791;53.108;18.326;2024-03-25T12:54:07;9.20;99.90
21267;DHT22;10791;53.108;18.326;2024-03-25T12:59:09;9.00;99.90
21267;DHT22;10791;53.108;18.326;2024-03-25T13:04:12;8.90;99.90
21267;DHT22;10791;53.108;18.326;2024-03-25T13:09:14;8.80;99.90
21267;DHT22;10791;53.108;18.326;2024-03-25T13:14:17;8.60;99.90
21267;DHT22;10791;53.108;18.326;2024-03-25T13:19:19;8.50;99.90
21267;DHT22;10791;53.108;18.326;2024-03-25T13:24:21;8.40;99.90
21267;DHT22;10791;53.108;18.326;2024-03-25T13:29:24;8.60;99.90
21267;DHT22;10791;53.108;18.326;2024-03-25T13:34:27;9.00;99.90
21267;DHT22;10791;53.108;18.326;2024-03-25T13:39:29;9.50;99.90
21267;DHT22;10791;53.108;18.326;2024-03-25T13:44:32;10.00;99.90
21267;DHT22;10791;53.108;18.326;2024-03-25T13:49:34;10.50;99.90
21267;DHT22;10791;53.108;18.326;2024-03-25T13:54:36;11.10;99.90
21267;DHT22;10791;53.108;18.326;2024-03-25T13:59:39;11.60;99.90
21267;DHT22;10791;53.108;18.326;2024-03-25T14:04:41;11.90;99.90
21267;DHT22;10791;53.108;18.326;2024-03-25T14:09:43;12.40;99.90
21267;DHT22;10791;53.108;18.326;2024-03-25T14:14:45;12.50;99.90
21267;DHT22;10791;53.108;18.326;2024-03-25T14:19:48;12.20;99.90
21267;DHT22;10791;53.108;18.326;2024-03-25T14:24:50;11.90;99.90
21267;DHT22;10791;53.108;18.326;2024-03-25T14:29:58;11.50;99.90
21267;DHT22;10791;53.108;18.326;2024-03-25T14:35:00;11.80;99.90
21267;DHT22;10791;53.108;18.326;2024-03-25T14:40:04;11.60;99.90
21267;DHT22;10791;53.108;18.326;2024-03-25T14:45:06;11.50;99.90
21267;DHT22;10791;53.108;18.326;2024-03-25T14:50:09;11.30;99.90
21267;DHT22;10791;53.108;18.326;2024-03-25T14:55:11;11.10;99.90
21267;DHT22;10791;53.108;18.326;2024-03-25T15:00:13;10.80;99.90
21267;DHT22;10791;53.108;18.326;2024-03-25T15:05:16;10.50;99.90
21267;DHT22;10791;53.108;18.326;2024-03-25T15:10:18;10.40;99.90
21267;DHT22;10791;53.108;18.326;2024-03-25T15:15:20;10.50;99.90
21267;DHT22;10791;53.108;18.326;2024-03-25T15:20:22;10.60;99.90
21267;DHT22;10791;53.108;18.326;2024-03-25T15:25:24;10.80;99.90
21267;DHT22;10791;53.108;18.326;2024-03-25T15:30:26;11.10;99.90
21267;DHT22;10791;53.108;18.326;2024-03-25T15:35:29;11.00;99.90
21267;DHT22;10791;53.108;18.326;2024-03-25T15:40:31;11.60;99.90
21267;DHT22;10791;53.108;18.326;2024-03-25T15:45:33;12.70;99.90
21267;DHT22;10791;53.108;18.326;2024-03-25T15:50:35;13.80;99.90
21267;DHT22;10791;53.108;18.326;2024-03-25T15:55:38;13.90;98.10
21267;DHT22;10791;53.108;18.326;2024-03-25T16:00:41;13.00;97.90
21267;DHT22;10791;53.108;18.326;2024-03-25T16:05:43;11.80;99.70
21267;DHT22;10791;53.108;18.326;2024-03-25T16:10:45;11.10;99.90
21267;DHT22;10791;53.108;18.326;2024-03-25T16:16:02;10.50;99.90
21267;DHT22;10791;53.108;18.326;2024-03-25T16:21:14;10.10;99.90
21267;DHT22;10791;53.108;18.326;2024-03-25T16:26:17;9.80;99.90
21267;DHT22;10791;53.108;18.326;2024-03-25T16:31:19;9.70;99.90
21267;DHT22;10791;53.108;18.326;2024-03-25T16:36:21;9.60;99.90
21267;DHT22;10791;53.108;18.326;2024-03-25T16:41:24;9.50;99.90
21267;DHT22;10791;53.108;18.326;2024-03-25T16:46:26;9.50;99.90
21267;DHT22;10791;53.108;18.326;2024-03-25T16:51:28;9.40;99.90
21267;DHT22;10791;53.108;18.326;2024-03-25T16:56:30;9.30;99.90
21267;DHT22;10791;53.108;18.326;2024-03-25T17:01:32;9.20;99.90
21267;DHT22;10791;53.108;18.326;2024-03-25T17:06:34;9.20;99.90
21267;DHT22;10791;53.108;18.326;2024-03-25T17:11:36;9.00;99.90
21267;DHT22;10791;53.108;18.326;2024-03-25T17:16:39;8.90;99.90
21267;DHT22;10791;53.108;18.326;2024-03-25T17:21:41;8.80;99.90
21267;DHT22;10791;53.108;18.326;2024-03-25T17:26:43;8.70;99.90
21267;DHT22;10791;53.108;18.326;2024-03-25T17:31:48;8.60;99.90
21267;DHT22;10791;53.108;18.326;2024-03-25T17:36:50;8.20;99.90
21267;DHT22;10791;53.108;18.326;2024-03-25T17:41:54;7.90;99.90
21267;DHT22;10791;53.108;18.326;2024-03-25T17:46:57;7.70;99.90
21267;DHT22;10791;53.108;18.326;2024-03-25T17:52:00;7.60;99.90
21267;DHT22;10791;53.108;18.326;2024-03-25T17:57:02;7.40;99.90
21267;DHT22;10791;53.108;18.326;2024-03-25T18:02:05;7.20;99.90
21267;DHT22;10791;53.108;18.326;2024-03-25T18:07:07;7.10;99.90
21267;DHT22;10791;53.108;18.326;2024-03-25T18:12:09;6.90;99.90
21267;DHT22;10791;53.108;18.326;2024-03-25T18:17:11;6.70;99.90
21267;DHT22;10791;53.108;18.326;2024-03-25T18:22:13;6.50;99.90
21267;DHT22;10791;53.108;18.326;2024-03-25T18:27:17;6.40;99.90
21267;DHT22;10791;53.108;18.326;2024-03-25T18:32:19;6.30;99.90
21267;DHT22;10791;53.108;18.326;2024-03-25T18:37:21;6.10;99.90
21267;DHT22;10791;53.108;18.326;2024-03-25T18:42:23;6.00;99.90
21267;DHT22;10791;53.108;18.326;2024-03-25T18:47:25;5.90;99.90
21267;DHT22;10791;53.108;18.326;2024-03-25T18:52:27;5.80;99.90
21267;DHT22;10791;53.108;18.326;2024-03-25T18:57:30;5.70;99.90
21267;DHT22;10791;53.108;18.326;2024-03-25T19:02:33;5.50;99.90
21267;DHT22;10791;53.108;18.326;2024-03-25T19:07:35;5.40;99.90
21267;DHT22;10791;53.108;18.326;2024-03-25T19:12:37;5.20;99.90
21267;DHT22;10791;53.108;18.326;2024-03-25T19:17:39;5.10;99.90
21267;DHT22;10791;53.108;18.326;2024-03-25T19:22:41;4.90;99.90
21267;DHT22;10791;53.108;18.326;2024-03-25T19:27:44;4.80;99.90
21267;DHT22;10791;53.108;18.326;2024-03-25T19:32:46;4.70;99.90
21267;DHT22;10791;53.108;18.326;2024-03-25T19:37:48;4.60;99.90
21267;DHT22;10791;53.108;18.326;2024-03-25T19:42:50;4.50;99.90
21267;DHT22;10791;53.108;18.326;2024-03-25T19:47:53;4.50;99.90
21267;DHT22;10791;53.108;18.326;2024-03-25T19:52:55;4.40;99.90
21267;DHT22;10791;53.108;18.326;2024-03-25T19:57:57;4.30;99.90
21267;DHT22;10791;53.108;18.326;2024-03-25T20:02:59;4.20;99.90
21267;DHT22;10791;53.108;18.326;2024-03-25T20:08:02;4.20;99.90
21267;DHT22;10791;53.108;18.326;2024-03-25T20:13:05;4.00;99.90
21267;DHT22;10791;53.108;18.326;2024-03-25T20:18:07;4.00;99.90
21267;DHT22;10791;53.108;18.326;2024-03-25T20:23:12;4.00;99.90
21267;DHT22;10791;53.108;18.326;2024-03-25T20:28:14;4.00;99.90
21267;DHT22;10791;53.108;18.326;2024-03-25T20:33:17;4.00;99.90
21267;DHT22;10791;53.108;18.326;2024-03-25T20:38:19;4.00;99.90
21267;DHT22;10791;53.108;18.326;2024-03-25T20:43:21;4.00;99.90
21267;DHT22;10791;53.108;18.326;2024-03-25T20:48:24;4.00;99.90
21267;DHT22;10791;53.108;18.326;2024-03-25T20:53:26;4.00;99.90
21267;DHT22;10791;53.108;18.326;2024-03-25T20:58:29;3.90;99.90
21267;DHT22;10791;53.108;18.326;2024-03-25T21:03:38;3.90;99.90
21267;DHT22;10791;53.108;18.326;2024-03-25T21:08:45;3.80;99.90
21267;DHT22;10791;53.108;18.326;2024-03-25T21:13:47;3.70;99.90
21267;DHT22;10791;53.108;18.326;2024-03-25T21:18:49;3.70;99.90
21267;DHT22;10791;53.108;18.326;2024-03-25T21:23:51;3.70;99.90
21267;DHT22;10791;53.108;18.326;2024-03-25T21:28:54;3.60;99.90
21267;DHT22;10791;53.108;18.326;2024-03-25T21:33:56;3.50;99.90
21267;DHT22;10791;53.108;18.326;2024-03-25T21:38:58;3.40;99.90
21267;DHT22;10791;53.108;18.326;2024-03-25T21:44:00;3.20;99.90
21267;DHT22;10791;53.108;18.326;2024-03-25T21:49:03;3.10;99.90
21267;DHT22;10791;53.108;18.326;2024-03-25T21:54:05;3.00;99.90
21267;DHT22;10791;53.108;18.326;2024-03-25T21:59:08;3.00;99.90
21267;DHT22;10791;53.108;18.326;2024-03-25T22:04:10;3.00;99.90
21267;DHT22;10791;53.108;18.326;2024-03-25T22:09:13;2.80;99.90
21267;DHT22;10791;53.108;18.326;2024-03-25T22:14:15;2.80;99.90
21267;DHT22;10791;53.108;18.326;2024-03-25T22:19:17;2.60;99.90
21267;DHT22;10791;53.108;18.326;2024-03-25T22:24:19;2.50;99.90
21267;DHT22;10791;53.108;18.326;2024-03-25T22:29:21;2.50;99.90
21267;DHT22;10791;53.108;18.326;2024-03-25T22:34:23;2.50;99.90
21267;DHT22;10791;53.108;18.326;2024-03-25T22:39:25;2.50;99.90
21267;DHT22;10791;53.108;18.326;2024-03-25T22:44:27;2.40;99.90
21267;DHT22;10791;53.108;18.326;2024-03-25T22:49:29;2.30;99.90
21267;DHT22;10791;53.108;18.326;2024-03-25T22:54:31;2.30;99.90
21267;DHT22;10791;53.108;18.326;2024-03-25T22:59:33;2.30;99.90
21267;DHT22;10791;53.108;18.326;2024-03-25T23:04:35;2.20;99.90
21267;DHT22;10791;53.108;18.326;2024-03-25T23:09:37;2.10;99.90
21267;DHT22;10791;53.108;18.326;2024-03-25T23:14:39;2.00;99.90
21267;DHT22;10791;53.108;18.326;2024-03-25T23:19:41;1.90;99.90
21267;DHT22;10791;53.108;18.326;2024-03-25T23:24:44;1.80;99.90
21267;DHT22;10791;53.108;18.326;2024-03-25T23:29:46;1.70;99.90
21267;DHT22;10791;53.108;18.326;2024-03-25T23:34:48;1.70;99.90
21267;DHT22;10791;53.108;18.326;2024-03-25T23:39:50;1.50;99.90
21267;DHT22;10791;53.108;18.326;2024-03-25T23:44:52;1.40;99.90
21267;DHT22;10791;53.108;18.326;2024-03-25T23:49:54;1.30;99.90
21267;DHT22;10791;53.108;18.326;2024-03-25T23:54:56;1.30;99.90
21267;DHT22;10791;53.108;18.326;2024-03-25T23:59:58;1.30;99.90
